Aérodrome :
LOGIN :

S'inscrire | Disclaimer

   EN    FR    IT 

 










Légende :    VFR   VFR Marginal   IFR   IFR Intensif   IFR Très Intensif
Visi : 
Plafond : 
>= 8 km
>= 3000ft
5 à 8 km
1000 à 3000 ft
1500m à 5 km
500 à 1000 ft
800 à 1500m
200 à 500 ft
< 800m
< 200 ft
Symboles :   Orages  Brouillard  Fortes neiges  Fortes précipitations  Vent > 20 kt
SIGMETs :   Divers  Orages  Givrage  Turbulence  Onde Orograph.  Cendres Volcan.






- Altitude de l'aérodrome : 935 ft


EBFS - Florennes

DERNIER METAR :
  • 271055Z AUTO 07003KT 6000 BKN085/// OVC100/// 05/04 Q1018 WHT

METARs EXPIRÉS :
  • 271025Z AUTO 08003KT 4100 BR BKN085/// BKN100/// 04/03 Q1018 GRN
  • 271015Z AUTO 07003KT 3500 BR SCT085/// BKN100/// BKN120/// 04/03 Q1018 YLO
  • 270925Z AUTO 07003KT 3800 BR FEW095/// BKN110/// BKN120/// 02/02 Q1018 GRN
  • 270903Z AUTO 08003KT 3600 BR FEW095/// BKN110/// BKN120/// 02/02 Q1018 YLO
  • 270855Z AUTO 09003KT 5000 FEW095/// BKN110/// BKN130/// 03/02 Q1018 WHT
  • 270825Z AUTO 09003KT 2000 BR SCT100/// BKN120/// BKN220/// 01/01 Q1018 YLO

Prévision TAF périmée.



MET'MAP, la Météo Aéronautique d'un coup d'oeil ! - Copyright ORBIFLY Décembre 2007 - Disclaimer

ORBIFLY MET'MAP TEAM :

Programmation & Développement : Alexandra Zaïnal
Sur une idée originale de : Baudouin d'Aumeries
Assistance à la programmation : Marc-Olivier Méhu
Soutien technique & logistique : Manuel Goepfert

Contact : metmap@orbifly.com




SOURCES & CREDITS :

   NOAA